Time;durP1;ratioP1;P1;durP2;ratioP2;P2;SDS_P1;SDS_P2;PMS_P1;PMS_P2;Temp;Humidity;BMP_temperature;BMP_pressure;BME280_temperature;BME280_humidity;BME280_pressure;Samples;Min_cycle;Max_cycle;Signal;HPM_P1;HPM_P2
2021/01/18 00:01:18;;;;;;;0.40;0.30;;;;;;;-2.18;88.13;101602.72;5075679;28;20213;-64
2021/01/18 00:03:44;;;;;;;0.40;0.40;;;;;;;-2.20;89.46;101604.75;5075716;28;20199;-64
2021/01/18 00:06:14;;;;;;;0.60;0.60;;;;;;;-2.11;89.75;101608.09;5075527;28;20227;-64
2021/01/18 00:08:40;;;;;;;0.40;0.30;;;;;;;-2.11;89.36;101592.16;5075162;28;20288;-64
2021/01/18 00:11:07;;;;;;;0.40;0.30;;;;;;;-2.28;89.00;101589.78;5075074;28;20580;-64
2021/01/18 00:13:33;;;;;;;0.40;0.40;;;;;;;-2.30;88.76;101583.03;5075169;28;20262;-64
2021/01/18 00:15:59;;;;;;;0.40;0.30;;;;;;;-2.35;88.67;101591.53;5075407;28;20582;-64
2021/01/18 00:18:25;;;;;;;1.20;1.10;;;;;;;-2.33;88.42;101589.53;5075359;28;20207;-64
2021/01/18 00:20:51;;;;;;;0.40;0.40;;;;;;;-2.37;88.31;101582.97;5074810;28;20223;-64
2021/01/18 00:23:18;;;;;;;0.43;0.40;;;;;;;-2.49;89.00;101583.66;5075435;28;20294;-64
2021/01/18 00:25:44;;;;;;;0.40;0.38;;;;;;;-2.54;88.30;101584.22;5075306;28;20273;-64
2021/01/18 00:28:11;;;;;;;0.40;0.30;;;;;;;-2.57;88.44;101587.25;5075123;28;20210;-65
2021/01/18 00:30:39;;;;;;;0.40;0.30;;;;;;;-2.47;89.06;101581.66;5074850;28;20679;-64
2021/01/18 00:33:06;;;;;;;0.90;0.60;;;;;;;-2.46;89.47;101581.44;5074709;28;20227;-64
2021/01/18 00:35:32;;;;;;;1.80;1.70;;;;;;;-2.42;88.60;101580.06;5074965;28;20218;-64
2021/01/18 00:37:59;;;;;;;1.50;1.40;;;;;;;-2.45;88.35;101577.78;5075024;28;20241;-65
2021/01/18 00:40:26;;;;;;;1.05;0.98;;;;;;;-2.48;88.53;101572.84;5075184;28;20234;-64
2021/01/18 00:42:52;;;;;;;0.40;0.30;;;;;;;-2.58;88.45;101559.91;5074577;28;20249;-65
2021/01/18 00:45:21;;;;;;;5.20;1.33;;;;;;;-2.59;88.58;101563.59;5075162;28;20226;-64
2021/01/18 00:47:49;;;;;;;0.47;0.45;;;;;;;-2.58;88.40;101564.41;5075680;28;20204;-64
2021/01/18 00:50:17;;;;;;;0.40;0.30;;;;;;;-2.61;88.95;101562.16;5075445;28;20242;-64
2021/01/18 00:52:44;;;;;;;0.40;0.40;;;;;;;-2.66;88.60;101562.69;5075271;28;20259;-64
2021/01/18 00:55:12;;;;;;;0.40;0.30;;;;;;;-2.63;88.96;101557.03;5076278;28;20235;-64
2021/01/18 00:57:39;;;;;;;0.90;0.80;;;;;;;-2.68;89.19;101566.56;5077626;28;20210;-64
2021/01/18 01:00:08;;;;;;;0.40;0.40;;;;;;;-2.62;89.71;101556.00;5077659;28;20227;-64
2021/01/18 01:02:38;;;;;;;0.80;0.73;;;;;;;-2.62;89.68;101557.84;5076706;28;20210;-65
2021/01/18 01:05:05;;;;;;;0.40;0.40;;;;;;;-2.66;91.07;101557.38;5079343;28;20253;-65
2021/01/18 01:07:36;;;;;;;0.50;0.40;;;;;;;-2.55;90.42;101564.03;5079657;28;20703;-65
2021/01/18 01:10:03;;;;;;;1.02;0.93;;;;;;;-2.61;90.87;101567.47;5079572;28;20199;-64
2021/01/18 01:12:29;;;;;;;0.55;0.55;;;;;;;-2.59;90.96;101562.78;5078267;28;20230;-65
2021/01/18 01:14:55;;;;;;;0.85;0.60;;;;;;;-2.66;90.75;101559.22;5078740;28;20227;-65
2021/01/18 01:17:23;;;;;;;0.70;0.63;;;;;;;-2.61;90.44;101568.28;5078087;28;20218;-65
2021/01/18 01:19:50;;;;;;;0.98;0.73;;;;;;;-2.61;90.46;101559.50;5077910;28;20603;-64
2021/01/18 01:22:16;;;;;;;2.15;2.05;;;;;;;-2.65;90.32;101553.75;5076738;28;20668;-65
2021/01/18 01:24:42;;;;;;;0.40;0.40;;;;;;;-2.66;90.14;101546.78;5077012;28;20447;-65
2021/01/18 01:27:08;;;;;;;0.80;0.73;;;;;;;-2.62;90.21;101544.56;5076742;28;20210;-65
2021/01/18 01:29:34;;;;;;;0.80;0.68;;;;;;;-2.65;89.62;101542.31;5077047;28;20203;-65
2021/01/18 01:32:01;;;;;;;1.10;0.60;;;;;;;-2.70;89.83;101539.41;5075585;28;20242;-65
2021/01/18 01:34:27;;;;;;;1.20;1.10;;;;;;;-2.80;90.36;101545.84;5075313;28;20230;-64
2021/01/18 01:36:54;;;;;;;1.02;1.02;;;;;;;-2.86;90.55;101546.59;5076072;28;20224;-65
2021/01/18 01:39:20;;;;;;;1.02;1.02;;;;;;;-2.86;89.69;101543.13;5075713;28;20226;-63
2021/01/18 01:41:46;;;;;;;0.50;0.50;;;;;;;-2.92;89.62;101539.41;5075092;28;20239;-65
2021/01/18 01:44:12;;;;;;;0.40;0.30;;;;;;;-2.95;89.23;101534.47;5074797;28;20208;-64
2021/01/18 01:46:39;;;;;;;0.40;0.30;;;;;;;-3.00;89.91;101539.53;5074145;28;20695;-65
2021/01/18 01:49:05;;;;;;;1.05;1.05;;;;;;;-2.93;89.22;101535.09;5073591;28;20204;-64
2021/01/18 01:51:33;;;;;;;0.40;0.30;;;;;;;-2.87;89.17;101534.38;5073183;28;20669;-64
2021/01/18 01:54:01;;;;;;;0.80;0.80;;;;;;;-2.86;88.90;101525.41;5073674;28;20230;-66
2021/01/18 01:56:27;;;;;;;1.00;1.00;;;;;;;-2.84;89.58;101533.97;5073380;28;20647;-66
2021/01/18 01:58:54;;;;;;;1.20;0.70;;;;;;;-2.78;89.68;101523.66;5073519;28;20571;-65
2021/01/18 02:01:21;;;;;;;0.57;0.57;;;;;;;-2.68;89.42;101521.50;5073291;28;20204;-66
2021/01/18 02:03:51;;;;;;;0.40;0.40;;;;;;;-2.70;89.66;101528.78;5073386;28;20284;-66
2021/01/18 02:06:18;;;;;;;1.45;1.30;;;;;;;-2.61;89.65;101531.16;5073478;28;20265;-65
2021/01/18 02:08:44;;;;;;;0.40;0.30;;;;;;;-2.52;88.98;101529.19;5073393;28;20195;-66
2021/01/18 02:11:11;;;;;;;1.23;0.93;;;;;;;-2.49;88.60;101525.31;5073469;28;20203;-66
2021/01/18 02:13:52;;;;;;;0.40;0.40;;;;;;;-2.46;89.50;101531.06;5073343;28;20317;-65
2021/01/18 02:16:25;;;;;;;1.15;1.05;;;;;;;-2.39;89.75;101524.00;5073226;28;20230;-66
2021/01/18 02:19:10;;;;;;;1.35;0.73;;;;;;;-2.29;88.82;101521.00;5073307;28;20201;-67
2021/01/18 02:22:15;;;;;;;0.40;0.30;;;;;;;-2.19;88.66;101526.78;5073475;28;20235;-66
2021/01/18 02:25:09;;;;;;;1.10;1.10;;;;;;;-2.20;87.92;101525.16;5073131;28;20187;-65
2021/01/18 02:28:01;;;;;;;0.40;0.40;;;;;;;-2.09;88.60;101529.09;5073338;28;20276;-66
2021/01/18 02:30:54;;;;;;;0.40;0.30;;;;;;;-2.09;89.20;101521.13;5072867;28;20656;-65
2021/01/18 02:33:51;;;;;;;0.40;0.30;;;;;;;-1.95;89.36;101508.75;5076186;28;20621;-66
2021/01/18 02:36:26;;;;;;;0.40;0.30;;;;;;;-1.91;89.94;101518.78;5070640;28;20222;-66
2021/01/18 02:39:03;;;;;;;0.90;0.60;;;;;;;-1.78;89.14;101512.72;5077223;28;20191;-65
2021/01/18 02:41:39;;;;;;;1.20;0.77;;;;;;;-1.79;89.53;101503.13;5077237;28;20259;-66
2021/01/18 02:44:07;;;;;;;4.88;1.00;;;;;;;-1.74;89.36;101510.50;5076964;28;20218;-66
2021/01/18 02:46:35;;;;;;;0.68;0.50;;;;;;;-1.63;88.78;101507.31;5077236;28;20231;-67
2021/01/18 02:49:04;;;;;;;0.40;0.30;;;;;;;-1.54;88.70;101508.78;5076794;28;20609;-67
2021/01/18 02:51:33;;;;;;;1.20;0.60;;;;;;;-1.54;87.60;101508.78;5076780;28;20237;-66
2021/01/18 02:54:01;;;;;;;0.70;0.68;;;;;;;-1.50;87.71;101507.34;5076463;28;20223;-66
2021/01/18 02:56:30;;;;;;;1.38;1.30;;;;;;;-1.49;87.85;101510.84;5095281;22;20703;-77
2021/01/18 02:58:58;;;;;;;0.60;0.60;;;;;;;-1.52;87.79;101514.69;5099464;28;20206;-77
2021/01/18 03:01:53;;;;;;;1.05;0.70;;;;;;;-1.48;87.26;101513.28;5099530;28;20271;-78
2021/01/18 03:04:30;;;;;;;0.40;0.30;;;;;;;-1.47;87.22;101512.25;5097753;28;20222;-77
2021/01/18 03:07:00;;;;;;;0.40;0.30;;;;;;;-1.47;86.87;101509.59;5100222;28;20187;-77
2021/01/18 03:09:34;;;;;;;0.40;0.40;;;;;;;-1.49;84.94;101511.66;5098295;28;20187;-77
2021/01/18 03:12:05;;;;;;;0.40;0.30;;;;;;;-1.56;84.60;101502.81;5099061;28;20186;-77
2021/01/18 03:14:37;;;;;;;2.13;1.63;;;;;;;-1.58;84.40;101502.22;5099469;28;20313;-77
2021/01/18 03:17:06;;;;;;;3.40;1.30;;;;;;;-1.56;84.67;101500.97;5099190;28;20182;-77
2021/01/18 03:19:41;;;;;;;0.40;0.38;;;;;;;-1.53;84.64;101494.47;5090771;28;20286;-77
2021/01/18 03:22:09;;;;;;;0.50;0.40;;;;;;;-1.50;84.76;101493.25;5079042;28;20237;-77
2021/01/18 03:24:35;;;;;;;1.50;1.40;;;;;;;-1.58;84.49;101488.94;5078492;28;20223;-77
2021/01/18 03:27:03;;;;;;;0.40;0.40;;;;;;;-1.50;85.91;101483.44;5079008;28;20203;-77
2021/01/18 03:29:29;;;;;;;2.87;1.23;;;;;;;-1.41;86.13;101484.91;5078861;28;20203;-77
2021/01/18 03:31:55;;;;;;;1.35;1.35;;;;;;;-1.46;85.65;101484.69;5078506;28;20942;-77
2021/01/18 03:34:22;;;;;;;0.40;0.40;;;;;;;-1.52;85.67;101490.78;5079233;28;20238;-77
2021/01/18 03:36:48;;;;;;;0.80;0.80;;;;;;;-1.43;84.23;101494.91;5080958;28;20201;-78
2021/01/18 03:39:15;;;;;;;0.93;0.93;;;;;;;-1.47;83.23;101488.34;5081194;28;20510;-77
2021/01/18 03:41:41;;;;;;;0.80;0.75;;;;;;;-1.41;82.95;101494.72;5081885;28;20576;-78
2021/01/18 03:44:08;;;;;;;0.90;0.57;;;;;;;-1.48;83.30;101496.53;5081223;28;20635;-78
2021/01/18 03:46:34;;;;;;;1.15;0.85;;;;;;;-1.43;83.71;101505.53;5081243;28;20442;-77
2021/01/18 03:49:00;;;;;;;0.73;0.73;;;;;;;-1.37;83.84;101496.78;5080175;28;20207;-77
2021/01/18 03:51:30;;;;;;;0.50;0.47;;;;;;;-1.39;83.94;101496.16;5080437;28;20199;-77
2021/01/18 03:53:56;;;;;;;0.40;0.30;;;;;;;-1.46;83.83;101494.47;5079151;28;20310;-77
2021/01/18 03:56:23;;;;;;;0.65;0.57;;;;;;;-1.37;84.21;101494.13;5079377;28;21009;-77
2021/01/18 03:58:50;;;;;;;3.22;1.27;;;;;;;-1.33;84.42;101490.06;5079565;28;20195;-77
2021/01/18 04:01:16;;;;;;;8.13;1.25;;;;;;;-1.42;84.03;101496.53;5079417;28;20225;-77
2021/01/18 04:03:42;;;;;;;0.40;0.30;;;;;;;-1.38;84.07;101494.31;5078580;28;20546;-77
2021/01/18 04:06:09;;;;;;;0.40;0.40;;;;;;;-1.46;83.16;101489.16;5078614;28;20249;-77
2021/01/18 04:08:35;;;;;;;0.73;0.73;;;;;;;-1.44;83.67;101493.28;5077940;28;20441;-77
2021/01/18 04:11:01;;;;;;;2.40;1.48;;;;;;;-1.46;83.95;101490.00;5078266;28;20207;-77
2021/01/18 04:13:28;;;;;;;0.50;0.50;;;;;;;-1.45;84.01;101486.31;5078998;28;20704;-77
2021/01/18 04:15:55;;;;;;;4.70;1.00;;;;;;;-1.46;83.66;101486.50;5079022;28;20223;-77
2021/01/18 04:18:21;;;;;;;0.50;0.45;;;;;;;-1.50;84.31;101478.13;5079738;28;20211;-77
2021/01/18 04:20:47;;;;;;;0.98;0.75;;;;;;;-1.48;85.19;101473.44;5079478;28;20617;-77
2021/01/18 04:23:13;;;;;;;0.63;0.63;;;;;;;-1.41;85.73;101476.94;5078914;28;20226;-77
2021/01/18 04:25:40;;;;;;;0.40;0.30;;;;;;;-1.44;84.55;101477.34;5080598;28;20227;-78
2021/01/18 04:28:06;;;;;;;1.27;0.50;;;;;;;-1.43;84.01;101472.84;5080444;28;20207;-77
2021/01/18 04:30:35;;;;;;;3.63;1.25;;;;;;;-1.43;84.43;101468.34;5080131;28;20453;-77
2021/01/18 04:33:03;;;;;;;0.40;0.40;;;;;;;-1.38;84.97;101470.38;5079799;28;20263;-78
2021/01/18 04:35:30;;;;;;;1.45;1.35;;;;;;;-1.47;84.84;101467.09;5079078;28;20314;-77
2021/01/18 04:37:58;;;;;;;0.50;0.40;;;;;;;-1.42;84.26;101463.84;5079212;28;20203;-77
2021/01/18 04:40:25;;;;;;;14.00;3.33;;;;;;;-1.41;84.55;101462.84;5079288;28;20207;-77
2021/01/18 04:42:52;;;;;;;4.10;1.30;;;;;;;-1.49;85.07;101458.53;5077948;28;20199;-77
2021/01/18 04:45:20;;;;;;;2.58;2.47;;;;;;;-1.41;85.35;101463.66;5079084;28;20223;-77
2021/01/18 04:47:49;;;;;;;1.63;1.52;;;;;;;-1.38;85.32;101465.91;5078867;28;20206;-78
2021/01/18 04:50:17;;;;;;;0.40;0.30;;;;;;;-1.31;84.57;101474.72;5078544;28;20192;-77
2021/01/18 04:52:48;;;;;;;0.50;0.50;;;;;;;-1.34;84.13;101464.47;5077969;28;20277;-77
2021/01/18 04:55:27;;;;;;;1.35;1.25;;;;;;;-1.38;84.46;101459.75;5078291;28;20265;-77
2021/01/18 04:58:03;;;;;;;0.98;0.93;;;;;;;-1.41;83.78;101468.16;5079086;28;20687;-78
2021/01/18 05:00:35;;;;;;;0.50;0.45;;;;;;;-1.47;84.56;101472.41;5079397;28;20191;-78
2021/01/18 05:03:06;;;;;;;0.95;0.70;;;;;;;-1.48;84.28;101465.47;5077954;28;20191;-78
2021/01/18 05:05:47;;;;;;;1.20;1.20;;;;;;;-1.43;83.73;101473.66;5078879;28;20227;-78
2021/01/18 05:08:33;;;;;;;0.77;0.63;;;;;;;-1.35;84.16;101470.00;5081361;28;20211;-77
2021/01/18 05:11:01;;;;;;;0.40;0.30;;;;;;;-1.32;82.87;101459.78;5078233;28;20214;-77
2021/01/18 05:13:30;;;;;;;0.40;0.38;;;;;;;-1.37;82.62;101456.13;5077732;28;20592;-78
2021/01/18 05:15:58;;;;;;;2.85;0.93;;;;;;;-1.39;83.49;101460.78;5078791;28;20280;-77
2021/01/18 05:18:32;;;;;;;3.60;1.70;;;;;;;-1.48;83.88;101459.34;5077083;28;20199;-77
2021/01/18 05:21:01;;;;;;;1.45;1.35;;;;;;;-1.43;84.34;101457.72;5078297;28;20255;-78
2021/01/18 05:23:27;;;;;;;1.43;1.33;;;;;;;-1.34;83.78;101456.50;5077543;28;20206;-77
2021/01/18 05:26:15;;;;;;;1.13;1.10;;;;;;;-1.38;84.25;101460.56;5077612;28;20824;-77
2021/01/18 05:28:44;;;;;;;0.50;0.50;;;;;;;-1.38;84.42;101463.22;5079704;28;20187;-77
2021/01/18 05:31:11;;;;;;;1.05;1.05;;;;;;;-1.41;84.51;101461.00;5078107;28;20288;-77
2021/01/18 05:33:39;;;;;;;1.17;1.00;;;;;;;-1.41;83.76;101462.84;5076341;28;20772;-77
2021/01/18 05:36:06;;;;;;;0.68;0.50;;;;;;;-1.37;84.22;101470.22;5077483;28;20234;-78
2021/01/18 05:38:32;;;;;;;1.83;1.42;;;;;;;-1.37;84.13;101464.91;5078026;28;20207;-77
2021/01/18 05:41:01;;;;;;;0.70;0.70;;;;;;;-1.36;84.78;101458.56;5077376;28;20607;-78
2021/01/18 05:43:34;;;;;;;2.90;1.95;;;;;;;-1.31;84.58;101455.28;5077773;28;20449;-77
2021/01/18 05:46:04;;;;;;;0.55;0.55;;;;;;;-1.30;84.36;101463.06;5077642;28;20223;-77
2021/01/18 05:48:31;;;;;;;5.17;2.07;;;;;;;-1.32;84.47;101466.94;5080389;28;20203;-77
2021/01/18 05:51:00;;;;;;;1.00;0.90;;;;;;;-1.35;84.36;101477.97;5078996;28;20498;-78
2021/01/18 05:53:27;;;;;;;0.40;0.30;;;;;;;-1.38;85.48;101478.38;5077180;28;20314;-77
2021/01/18 05:55:54;;;;;;;1.42;0.77;;;;;;;-1.34;85.45;101480.41;5076084;28;20711;-77
2021/01/18 05:58:30;;;;;;;0.50;0.45;;;;;;;-1.25;85.00;101477.59;5077406;28;20183;-77
2021/01/18 06:00:57;;;;;;;5.47;2.30;;;;;;;-1.29;85.18;101472.66;5077659;28;20199;-77
2021/01/18 06:03:27;;;;;;;3.70;1.08;;;;;;;-1.25;84.81;101469.63;5075208;28;20931;-77
2021/01/18 06:05:54;;;;;;;0.40;0.30;;;;;;;-1.31;85.27;101461.44;5074703;28;20280;-77
2021/01/18 06:08:22;;;;;;;2.67;1.35;;;;;;;-1.42;86.44;101463.84;5073916;28;20211;-77
2021/01/18 06:10:50;;;;;;;1.30;1.20;;;;;;;-1.31;86.45;101469.41;5074927;28;20210;-77
2021/01/18 06:13:21;;;;;;;1.17;1.08;;;;;;;-1.25;86.71;101464.28;5074557;28;20226;-77
2021/01/18 06:15:49;;;;;;;0.40;0.30;;;;;;;-1.33;86.18;101468.78;5075097;28;20226;-77
2021/01/18 06:18:16;;;;;;;3.90;1.25;;;;;;;-1.33;86.49;101468.78;5075068;28;20195;-77
2021/01/18 06:20:45;;;;;;;0.40;0.30;;;;;;;-1.27;86.51;101473.28;5074711;28;20257;-77
2021/01/18 06:23:21;;;;;;;2.55;1.83;;;;;;;-1.31;87.44;101472.06;5074417;28;20202;-77
2021/01/18 06:25:51;;;;;;;0.40;0.40;;;;;;;-1.27;86.78;101475.13;5074095;28;20302;-77
2021/01/18 06:28:25;;;;;;;0.88;0.88;;;;;;;-1.32;87.52;101472.28;5074401;28;20214;-77
2021/01/18 06:30:56;;;;;;;0.60;0.60;;;;;;;-1.37;87.62;101480.84;5074394;28;20619;-77
2021/01/18 06:33:35;;;;;;;0.43;0.43;;;;;;;-1.48;88.74;101477.94;5074181;28;20310;-77
2021/01/18 06:36:16;;;;;;;0.60;0.57;;;;;;;-1.49;88.99;101479.78;5074303;28;20280;-76
2021/01/18 06:38:50;;;;;;;1.60;1.50;;;;;;;-1.50;88.99;101483.44;5074233;28;20538;-77
2021/01/18 06:41:22;;;;;;;0.40;0.32;;;;;;;-1.50;89.61;101469.34;5074301;28;20194;-77
2021/01/18 06:43:49;;;;;;;0.40;0.40;;;;;;;-1.50;90.57;101472.00;5074003;28;20183;-77
2021/01/18 06:46:20;;;;;;;0.60;0.60;;;;;;;-1.42;91.05;101471.81;5073843;28;20704;-77
2021/01/18 06:48:49;;;;;;;1.48;0.85;;;;;;;-1.35;90.38;101476.13;5074739;28;20221;-77
2021/01/18 06:51:17;;;;;;;0.65;0.65;;;;;;;-1.41;88.46;101486.75;5074025;28;20218;-77
2021/01/18 06:53:47;;;;;;;0.70;0.70;;;;;;;-1.44;88.38;101492.47;5074058;28;20592;-78
2021/01/18 06:57:01;;;;;;;0.75;0.73;;;;;;;-1.50;88.75;101486.09;5074508;28;20325;-77
2021/01/18 06:59:50;;;;;;;0.80;0.70;;;;;;;-1.56;89.60;101494.84;5049016;28;20734;-76
2021/01/18 07:02:23;;;;;;;0.50;0.50;;;;;;;-1.54;90.03;101498.16;5068916;28;20210;-77
2021/01/18 07:04:50;;;;;;;0.40;0.30;;;;;;;-1.55;89.83;101501.78;5073330;28;20258;-77
2021/01/18 07:07:25;;;;;;;0.80;0.73;;;;;;;-1.59;89.82;101496.09;5073228;28;20206;-76
2021/01/18 07:09:56;;;;;;;0.60;0.50;;;;;;;-1.62;90.40;101499.13;5086210;28;20281;-76
2021/01/18 07:12:24;;;;;;;1.73;1.63;;;;;;;-1.63;90.37;101494.84;5093557;28;20278;-76
2021/01/18 07:14:57;;;;;;;0.40;0.40;;;;;;;-1.60;90.68;101493.59;5093214;28;20234;-76
2021/01/18 07:17:30;;;;;;;1.60;0.68;;;;;;;-1.60;91.35;101477.66;5093164;28;20635;-76
2021/01/18 07:19:59;;;;;;;1.65;1.55;;;;;;;-1.63;91.85;101481.56;5095134;28;20199;-76
2021/01/18 07:22:36;;;;;;;0.40;0.30;;;;;;;-1.57;91.48;101496.69;5096591;28;20290;-77
2021/01/18 07:25:04;;;;;;;0.40;0.30;;;;;;;-1.55;91.65;101481.41;5096982;28;20513;-78
2021/01/18 07:27:40;;;;;;;0.40;0.30;;;;;;;-1.54;91.50;101482.22;5097123;28;20210;-77
2021/01/18 07:30:08;;;;;;;0.40;0.30;;;;;;;-1.53;91.45;101492.63;5097020;28;20193;-77
2021/01/18 07:32:35;;;;;;;0.97;0.60;;;;;;;-1.47;92.20;101487.53;5096768;28;20209;-77
2021/01/18 07:35:04;;;;;;;1.98;1.10;;;;;;;-1.47;92.91;101483.03;5097025;28;20480;-77
2021/01/18 07:37:31;;;;;;;2.92;2.38;;;;;;;-1.41;92.72;101484.91;5096772;28;20210;-77
2021/01/18 07:40:09;;;;;;;0.82;0.82;;;;;;;-1.37;92.03;101482.69;5096863;28;20291;-77
2021/01/18 07:42:41;;;;;;;0.40;0.30;;;;;;;-1.42;90.73;101488.56;5096837;28;20278;-77
2021/01/18 07:45:18;;;;;;;0.77;0.70;;;;;;;-1.43;90.96;101486.94;5096259;28;20588;-77
2021/01/18 07:48:04;;;;;;;11.07;2.15;;;;;;;-1.43;90.66;101486.13;5096723;28;20198;-77
2021/01/18 07:50:32;;;;;;;2.25;0.85;;;;;;;-1.49;90.49;101490.41;5096447;28;20205;-77
2021/01/18 07:52:59;;;;;;;0.45;0.43;;;;;;;-1.60;92.85;101489.13;5096367;28;20262;-77
2021/01/18 07:55:26;;;;;;;0.40;0.30;;;;;;;-1.51;92.65;101479.13;5096356;28;20352;-77
2021/01/18 07:57:52;;;;;;;0.40;0.40;;;;;;;-1.46;91.94;101483.84;5096295;28;20598;-77
2021/01/18 08:00:29;;;;;;;1.17;0.95;;;;;;;-1.47;91.37;101480.38;5096162;28;20224;-77
2021/01/18 08:03:25;;;;;;;0.40;0.30;;;;;;;-1.47;91.22;101475.06;5096123;28;20564;-77
2021/01/18 08:06:05;;;;;;;1.05;0.95;;;;;;;-1.45;91.19;101469.56;5089563;28;20226;-77
2021/01/18 08:08:33;;;;;;;2.20;1.53;;;;;;;-1.48;93.10;101468.13;5096229;28;20197;-77
2021/01/18 08:11:03;;;;;;;0.40;0.30;;;;;;;-1.37;92.45;101466.75;5096217;28;20524;-78
2021/01/18 08:13:54;;;;;;;2.67;1.25;;;;;;;-1.32;92.08;101469.63;5096532;28;20213;-77
2021/01/18 08:16:42;;;;;;;0.40;0.40;;;;;;;-1.27;91.63;101475.94;5096704;28;20268;-77
2021/01/18 08:19:26;;;;;;;0.40;0.40;;;;;;;-1.29;91.52;101477.97;5097715;28;20195;-77
2021/01/18 08:21:58;;;;;;;0.77;0.77;;;;;;;-1.23;92.21;101476.38;5095581;28;20224;-77
2021/01/18 08:24:58;;;;;;;3.45;1.90;;;;;;;-1.24;91.82;101487.19;5096167;28;20218;-77
2021/01/18 08:27:57;;;;;;;2.78;2.10;;;;;;;-1.08;91.66;101484.97;5094649;28;20288;-77
2021/01/18 08:30:33;;;;;;;0.70;0.70;;;;;;;-1.06;91.24;101490.13;5095840;28;20187;-77
2021/01/18 08:33:02;;;;;;;0.60;0.60;;;;;;;-0.99;90.56;101480.28;5096415;28;20206;-78
2021/01/18 08:35:34;;;;;;;0.40;0.30;;;;;;;-0.96;90.54;101485.22;5098217;28;20456;-78
2021/01/18 08:38:04;;;;;;;0.70;0.50;;;;;;;-0.99;90.09;101474.16;5098271;28;20497;-78
2021/01/18 08:40:41;;;;;;;0.52;0.52;;;;;;;-1.02;91.77;101481.53;5096935;28;20436;-77
2021/01/18 08:43:08;;;;;;;0.60;0.57;;;;;;;-1.00;91.38;101483.97;5096676;28;20632;-77
2021/01/18 08:45:40;;;;;;;0.60;0.60;;;;;;;-1.01;90.18;101487.66;5096876;28;20226;-77
2021/01/18 08:48:08;;;;;;;0.40;0.30;;;;;;;-1.04;90.07;101490.72;5097218;28;20203;-77
2021/01/18 08:50:46;;;;;;;0.60;0.50;;;;;;;-1.04;91.71;101490.72;5096713;28;20571;-77
2021/01/18 08:53:24;;;;;;;0.65;0.65;;;;;;;-1.03;92.60;101487.03;5096311;28;20951;-77
2021/01/18 08:55:51;;;;;;;0.90;0.90;;;;;;;-0.94;92.45;101488.47;5096036;28;20238;-77
2021/01/18 08:58:41;;;;;;;0.50;0.40;;;;;;;-0.89;92.46;101486.03;5096476;28;20289;-77
2021/01/18 09:01:15;;;;;;;0.73;0.73;;;;;;;-0.81;91.63;101485.84;5098164;28;20179;-77
2021/01/18 09:03:42;;;;;;;0.50;0.50;;;;;;;-0.94;93.19;101477.84;5096980;28;20205;-77
2021/01/18 09:06:09;;;;;;;2.25;1.35;;;;;;;-0.86;93.13;101469.69;5097274;28;20231;-78
2021/01/18 09:08:35;;;;;;;0.50;0.50;;;;;;;-0.69;92.64;101469.28;5096215;28;20206;-78
2021/01/18 09:11:04;;;;;;;1.37;0.83;;;;;;;-0.56;91.85;101463.97;5097371;28;20459;-77
2021/01/18 09:13:32;;;;;;;1.80;1.70;;;;;;;-0.46;91.52;101464.34;5097628;28;20491;-77
2021/01/18 09:16:00;;;;;;;0.40;0.30;;;;;;;-0.39;90.62;101462.50;5098953;28;20456;-78
2021/01/18 09:18:27;;;;;;;1.20;0.68;;;;;;;-0.41;90.62;101467.22;5098767;28;20922;-77
2021/01/18 09:20:55;;;;;;;1.43;1.33;;;;;;;-0.43;89.90;101463.94;5098736;28;20214;-77
2021/01/18 09:23:21;;;;;;;0.90;0.80;;;;;;;-0.48;90.63;101466.41;5098401;28;20448;-77
2021/01/18 09:25:56;;;;;;;1.07;0.60;;;;;;;-0.42;91.62;101465.59;5098897;28;20490;-78
2021/01/18 09:28:22;;;;;;;1.20;1.10;;;;;;;-0.34;91.87;101457.38;5098741;28;20511;-77
2021/01/18 09:30:49;;;;;;;0.40;0.30;;;;;;;-0.30;91.17;101463.13;5098587;28;20449;-78
2021/01/18 09:33:16;;;;;;;0.53;0.53;;;;;;;-0.34;92.13;101453.91;5098921;28;20552;-78
2021/01/18 09:35:44;;;;;;;2.10;0.85;;;;;;;-0.32;92.23;101465.97;5099522;28;20456;-78
2021/01/18 09:38:12;;;;;;;0.60;0.50;;;;;;;-0.26;91.39;101467.00;5099090;28;20202;-77
2021/01/18 09:40:41;;;;;;;0.50;0.50;;;;;;;-0.25;92.17;101465.97;5099042;28;20452;-78
2021/01/18 09:43:08;;;;;;;2.30;0.83;;;;;;;-0.25;91.27;101455.31;5097845;28;20441;-78
2021/01/18 09:45:35;;;;;;;2.70;0.93;;;;;;;-0.35;90.31;101466.41;5097296;28;20521;-78
2021/01/18 09:48:05;;;;;;;1.60;0.65;;;;;;;-0.36;90.32;101467.41;5096668;28;20958;-77
2021/01/18 09:50:32;;;;;;;0.80;0.60;;;;;;;-0.34;91.57;101468.03;5104749;28;20664;-77
2021/01/18 09:52:59;;;;;;;2.27;2.07;;;;;;;-0.26;92.02;101464.34;5106028;28;20209;-78
2021/01/18 09:55:27;;;;;;;0.70;0.70;;;;;;;-0.21;91.87;101453.06;5106980;28;20490;-78
2021/01/18 09:57:58;;;;;;;2.00;1.87;;;;;;;-0.12;91.13;101454.50;5101134;28;20208;-78
2021/01/18 10:00:27;;;;;;;3.15;1.20;;;;;;;-0.07;90.93;101447.50;5100048;28;20425;-78
2021/01/18 10:02:54;;;;;;;0.80;0.70;;;;;;;-0.10;90.36;101450.56;5100269;28;20206;-78
2021/01/18 10:05:30;;;;;;;0.97;0.90;;;;;;;-0.06;90.84;101445.66;5098988;28;20218;-78
2021/01/18 10:07:59;;;;;;;1.08;1.08;;;;;;;-0.02;91.10;101449.53;5099485;28;20451;-78
2021/01/18 10:10:25;;;;;;;0.40;0.30;;;;;;;0.06;91.65;101441.31;5098187;28;20198;-77
2021/01/18 10:12:54;;;;;;;0.40;0.30;;;;;;;0.15;91.04;101442.72;5099105;28;20448;-78
2021/01/18 10:15:29;;;;;;;0.80;0.77;;;;;;;0.08;90.18;101444.56;5099243;28;20519;-78
2021/01/18 10:17:56;;;;;;;0.40;0.30;;;;;;;0.09;90.64;101437.41;5100419;28;20889;-77
2021/01/18 10:20:27;;;;;;;0.93;0.93;;;;;;;0.15;90.94;101434.72;5097940;28;20789;-77
2021/01/18 10:22:55;;;;;;;0.75;0.75;;;;;;;0.14;90.79;101435.75;5099540;28;20890;-77
2021/01/18 10:25:26;;;;;;;1.73;1.00;;;;;;;0.09;91.75;101440.91;5098255;28;20314;-78
2021/01/18 10:27:54;;;;;;;0.40;0.40;;;;;;;0.09;91.32;101435.59;5099323;28;20455;-78
2021/01/18 10:30:23;;;;;;;2.00;0.60;;;;;;;0.17;90.85;101437.16;5100310;28;20941;-77
2021/01/18 10:32:50;;;;;;;1.10;0.83;;;;;;;0.16;90.84;101433.69;5097614;28;20443;-77
2021/01/18 10:35:23;;;;;;;2.53;0.85;;;;;;;0.18;90.79;101423.66;5099292;28;20491;-78
2021/01/18 10:37:49;;;;;;;1.42;1.20;;;;;;;0.17;91.37;101432.66;5098772;28;20190;-78
2021/01/18 10:40:22;;;;;;;1.13;1.03;;;;;;;0.22;91.47;101422.22;5097815;28;20202;-78
2021/01/18 10:42:51;;;;;;;0.85;0.85;;;;;;;0.25;91.19;101421.75;5098685;28;20448;-78
2021/01/18 10:45:19;;;;;;;1.23;0.60;;;;;;;0.25;90.91;101424.44;5099318;28;20221;-78
2021/01/18 10:47:57;;;;;;;0.80;0.77;;;;;;;0.20;91.23;101420.78;5103112;28;20490;-78
2021/01/18 10:50:25;;;;;;;1.17;0.70;;;;;;;0.22;92.25;101419.53;5100941;28;20479;-78
2021/01/18 10:53:09;;;;;;;1.23;0.93;;;;;;;0.36;92.19;101422.16;5101382;28;20448;-78
2021/01/18 10:55:37;;;;;;;0.50;0.40;;;;;;;0.37;92.05;101421.13;5102628;28;20491;-78
2021/01/18 10:58:04;;;;;;;3.10;1.40;;;;;;;0.36;91.52;101425.63;5085479;28;20452;-78
2021/01/18 11:00:32;;;;;;;0.40;0.30;;;;;;;0.32;91.01;101423.59;5084586;28;20445;-77
2021/01/18 11:03:03;;;;;;;0.57;0.57;;;;;;;0.27;91.83;101418.06;5082767;28;20457;-78
2021/01/18 11:05:31;;;;;;;2.00;1.33;;;;;;;0.29;92.21;101416.03;5077128;28;20551;-77
2021/01/18 11:08:14;;;;;;;;;;;;;;;;;;;;;
2021/01/18 11:10:43;;;;;;;1.13;1.03;;;;;;;0.36;92.74;101406.16;5101001;28;20534;-77
2021/01/18 11:13:11;;;;;;;3.23;0.93;;;;;;;0.37;94.18;101403.28;5103839;28;20873;-78
2021/01/18 11:15:40;;;;;;;1.37;1.30;;;;;;;0.47;94.20;101408.94;5101504;28;20464;-78
2021/01/18 11:18:09;;;;;;;4.00;1.00;;;;;;;0.56;93.47;101404.19;5101816;28;20960;-78
2021/01/18 11:20:36;;;;;;;0.80;0.80;;;;;;;0.56;93.15;101393.53;5101786;28;20847;-78
2021/01/18 11:23:02;;;;;;;0.40;0.30;;;;;;;0.60;93.09;101402.72;5103125;28;20425;-78
2021/01/18 11:25:36;;;;;;;0.60;0.60;;;;;;;0.59;92.96;101389.63;5104043;28;20587;-78
2021/01/18 11:28:10;;;;;;;0.83;0.43;;;;;;;0.62;94.04;101398.00;5103922;28;20530;-77
2021/01/18 11:30:37;;;;;;;0.85;0.85;;;;;;;0.73;93.83;101397.31;5103374;28;21013;-78
2021/01/18 11:33:16;;;;;;;;;;;;;;;;;;;;;
2021/01/18 11:35:44;;;;;;;1.47;1.40;;;;;;;0.78;93.39;101399.34;5094963;28;20463;-77
2021/01/18 11:38:14;;;;;;;1.17;1.07;;;;;;;0.83;93.83;101385.34;5097291;28;20533;-77
2021/01/18 11:40:41;;;;;;;0.60;0.60;;;;;;;0.90;94.32;101388.78;5097993;28;20441;-77
2021/01/18 11:43:07;;;;;;;0.40;0.30;;;;;;;0.94;94.51;101384.66;5099093;28;20960;-78
2021/01/18 11:45:41;;;;;;;0.63;0.57;;;;;;;1.00;93.86;101387.25;5099387;28;20823;-78